sensor_id;sensor_type;location;lat;lon;timestamp;temperature;humidity
2010;DHT22;1008;47.404;8.502;2023-01-28T00:01:13;1.40;99.90
2010;DHT22;1008;47.404;8.502;2023-01-28T00:03:40;1.40;99.90
2010;DHT22;1008;47.404;8.502;2023-01-28T00:06:11;1.40;99.90
2010;DHT22;1008;47.404;8.502;2023-01-28T00:08:38;1.40;99.90
2010;DHT22;1008;47.404;8.502;2023-01-28T00:11:10;1.40;99.90
2010;DHT22;1008;47.404;8.502;2023-01-28T00:13:37;1.20;99.90
2010;DHT22;1008;47.404;8.502;2023-01-28T00:16:05;1.40;99.90
2010;DHT22;1008;47.404;8.502;2023-01-28T00:18:33;1.40;99.90
2010;DHT22;1008;47.404;8.502;2023-01-28T00:21:01;1.50;99.90
2010;DHT22;1008;47.404;8.502;2023-01-28T00:23:32;1.30;99.90
2010;DHT22;1008;47.404;8.502;2023-01-28T00:26:00;1.30;99.90
2010;DHT22;1008;47.404;8.502;2023-01-28T00:28:27;1.30;99.90
2010;DHT22;1008;47.404;8.502;2023-01-28T00:30:53;1.50;99.90
2010;DHT22;1008;47.404;8.502;2023-01-28T00:33:20;1.40;99.90
2010;DHT22;1008;47.404;8.502;2023-01-28T00:35:53;1.50;99.90
2010;DHT22;1008;47.404;8.502;2023-01-28T00:38:23;1.40;99.90
2010;DHT22;1008;47.404;8.502;2023-01-28T00:40:51;1.50;99.90
2010;DHT22;1008;47.404;8.502;2023-01-28T00:43:18;1.30;99.90
2010;DHT22;1008;47.404;8.502;2023-01-28T00:45:44;1.40;99.90
2010;DHT22;1008;47.404;8.502;2023-01-28T00:48:11;1.30;99.90
2010;DHT22;1008;47.404;8.502;2023-01-28T00:50:38;1.40;99.90
2010;DHT22;1008;47.404;8.502;2023-01-28T00:53:05;1.20;99.90
2010;DHT22;1008;47.404;8.502;2023-01-28T00:55:32;1.20;99.90
2010;DHT22;1008;47.404;8.502;2023-01-28T00:58:00;1.20;99.90
2010;DHT22;1008;47.404;8.502;2023-01-28T01:00:27;1.30;99.90
2010;DHT22;1008;47.404;8.502;2023-01-28T01:02:54;1.40;99.90
2010;DHT22;1008;47.404;8.502;2023-01-28T01:05:20;1.50;99.90
2010;DHT22;1008;47.404;8.502;2023-01-28T01:07:47;1.50;99.90
2010;DHT22;1008;47.404;8.502;2023-01-28T01:10:16;1.40;99.90
2010;DHT22;1008;47.404;8.502;2023-01-28T01:12:45;1.50;99.90
2010;DHT22;1008;47.404;8.502;2023-01-28T01:15:13;1.40;99.90
2010;DHT22;1008;47.404;8.502;2023-01-28T01:17:42;1.50;99.90
2010;DHT22;1008;47.404;8.502;2023-01-28T01:20:12;1.40;99.90
2010;DHT22;1008;47.404;8.502;2023-01-28T01:22:40;1.30;99.90
2010;DHT22;1008;47.404;8.502;2023-01-28T01:25:08;1.40;99.90
2010;DHT22;1008;47.404;8.502;2023-01-28T01:27:34;1.40;99.90
2010;DHT22;1008;47.404;8.502;2023-01-28T01:30:01;1.40;99.90
2010;DHT22;1008;47.404;8.502;2023-01-28T01:32:30;1.40;99.90
2010;DHT22;1008;47.404;8.502;2023-01-28T01:34:59;1.40;99.90
2010;DHT22;1008;47.404;8.502;2023-01-28T01:37:27;1.40;99.90
2010;DHT22;1008;47.404;8.502;2023-01-28T01:39:54;1.20;99.90
2010;DHT22;1008;47.404;8.502;2023-01-28T01:42:21;1.20;99.90
2010;DHT22;1008;47.404;8.502;2023-01-28T01:44:55;1.30;99.90
2010;DHT22;1008;47.404;8.502;2023-01-28T01:47:24;1.30;99.90
2010;DHT22;1008;47.404;8.502;2023-01-28T01:49:55;1.40;99.90
2010;DHT22;1008;47.404;8.502;2023-01-28T01:52:26;1.20;99.90
2010;DHT22;1008;47.404;8.502;2023-01-28T01:54:56;1.20;99.90
2010;DHT22;1008;47.404;8.502;2023-01-28T01:57:27;1.10;99.90
2010;DHT22;1008;47.404;8.502;2023-01-28T01:59:56;1.10;99.90
2010;DHT22;1008;47.404;8.502;2023-01-28T02:02:32;1.00;99.90
2010;DHT22;1008;47.404;8.502;2023-01-28T02:05:02;1.10;99.90
2010;DHT22;1008;47.404;8.502;2023-01-28T02:07:29;1.20;99.90
2010;DHT22;1008;47.404;8.502;2023-01-28T02:09:56;1.10;99.90
2010;DHT22;1008;47.404;8.502;2023-01-28T02:12:26;1.20;99.90
2010;DHT22;1008;47.404;8.502;2023-01-28T02:14:59;1.10;99.90
2010;DHT22;1008;47.404;8.502;2023-01-28T02:17:27;1.10;99.90
2010;DHT22;1008;47.404;8.502;2023-01-28T02:19:57;1.10;99.90
2010;DHT22;1008;47.404;8.502;2023-01-28T02:22:46;1.00;99.90
2010;DHT22;1008;47.404;8.502;2023-01-28T02:28:40;1.00;99.90
2010;DHT22;1008;47.404;8.502;2023-01-28T02:31:14;1.10;99.90
2010;DHT22;1008;47.404;8.502;2023-01-28T02:33:45;1.30;99.90
2010;DHT22;1008;47.404;8.502;2023-01-28T02:36:23;1.10;99.90
2010;DHT22;1008;47.404;8.502;2023-01-28T02:38:54;1.10;99.90
2010;DHT22;1008;47.404;8.502;2023-01-28T02:41:27;1.00;99.90
2010;DHT22;1008;47.404;8.502;2023-01-28T02:43:56;1.00;99.90
2010;DHT22;1008;47.404;8.502;2023-01-28T02:46:33;1.10;99.90
2010;DHT22;1008;47.404;8.502;2023-01-28T02:49:24;1.30;99.90
2010;DHT22;1008;47.404;8.502;2023-01-28T02:52:04;1.10;99.90
2010;DHT22;1008;47.404;8.502;2023-01-28T02:54:39;1.20;99.90
2010;DHT22;1008;47.404;8.502;2023-01-28T02:57:18;1.30;99.90
2010;DHT22;1008;47.404;8.502;2023-01-28T02:59:54;1.10;99.90
2010;DHT22;1008;47.404;8.502;2023-01-28T03:02:29;0.90;99.90
2010;DHT22;1008;47.404;8.502;2023-01-28T03:04:59;0.90;99.90
2010;DHT22;1008;47.404;8.502;2023-01-28T03:07:30;1.10;99.90
2010;DHT22;1008;47.404;8.502;2023-01-28T03:10:01;1.00;99.90
2010;DHT22;1008;47.404;8.502;2023-01-28T03:12:31;1.10;99.90
2010;DHT22;1008;47.404;8.502;2023-01-28T03:15:20;1.00;99.90
2010;DHT22;1008;47.404;8.502;2023-01-28T03:18:08;0.80;99.90
2010;DHT22;1008;47.404;8.502;2023-01-28T03:21:00;0.90;99.90
2010;DHT22;1008;47.404;8.502;2023-01-28T03:23:50;0.90;99.90
2010;DHT22;1008;47.404;8.502;2023-01-28T03:26:41;1.00;99.90
2010;DHT22;1008;47.404;8.502;2023-01-28T03:29:29;1.00;99.90
2010;DHT22;1008;47.404;8.502;2023-01-28T03:32:16;1.10;99.90
2010;DHT22;1008;47.404;8.502;2023-01-28T03:35:04;1.10;99.90
2010;DHT22;1008;47.404;8.502;2023-01-28T03:37:50;1.00;99.90
2010;DHT22;1008;47.404;8.502;2023-01-28T03:40:17;1.00;99.90
2010;DHT22;1008;47.404;8.502;2023-01-28T03:42:44;1.10;99.90
2010;DHT22;1008;47.404;8.502;2023-01-28T03:45:11;1.10;99.90
2010;DHT22;1008;47.404;8.502;2023-01-28T03:47:39;0.90;99.90
2010;DHT22;1008;47.404;8.502;2023-01-28T03:50:08;1.10;99.90
2010;DHT22;1008;47.404;8.502;2023-01-28T03:52:35;1.20;99.90
2010;DHT22;1008;47.404;8.502;2023-01-28T03:55:02;1.20;99.90
2010;DHT22;1008;47.404;8.502;2023-01-28T03:57:38;1.10;99.90
2010;DHT22;1008;47.404;8.502;2023-01-28T04:00:06;1.00;99.90
2010;DHT22;1008;47.404;8.502;2023-01-28T04:02:34;1.00;99.90
2010;DHT22;1008;47.404;8.502;2023-01-28T04:05:07;1.10;99.90
2010;DHT22;1008;47.404;8.502;2023-01-28T04:07:37;1.00;99.90
2010;DHT22;1008;47.404;8.502;2023-01-28T04:10:05;1.10;99.90
2010;DHT22;1008;47.404;8.502;2023-01-28T04:12:33;1.20;99.90
2010;DHT22;1008;47.404;8.502;2023-01-28T04:15:03;1.20;99.90
2010;DHT22;1008;47.404;8.502;2023-01-28T04:17:40;1.20;99.90
2010;DHT22;1008;47.404;8.502;2023-01-28T04:20:09;1.20;99.90
2010;DHT22;1008;47.404;8.502;2023-01-28T04:22:36;1.20;99.90
2010;DHT22;1008;47.404;8.502;2023-01-28T04:25:04;1.10;99.90
2010;DHT22;1008;47.404;8.502;2023-01-28T04:27:31;1.10;99.90
2010;DHT22;1008;47.404;8.502;2023-01-28T04:29:57;1.10;99.90
2010;DHT22;1008;47.404;8.502;2023-01-28T04:32:24;1.20;99.90
2010;DHT22;1008;47.404;8.502;2023-01-28T04:34:51;1.10;99.90
2010;DHT22;1008;47.404;8.502;2023-01-28T04:37:19;1.20;99.90
2010;DHT22;1008;47.404;8.502;2023-01-28T04:39:46;1.20;99.90
2010;DHT22;1008;47.404;8.502;2023-01-28T04:42:13;1.10;99.90
2010;DHT22;1008;47.404;8.502;2023-01-28T04:44:40;1.10;99.90
2010;DHT22;1008;47.404;8.502;2023-01-28T04:47:07;1.10;99.90
2010;DHT22;1008;47.404;8.502;2023-01-28T04:49:34;1.10;99.90
2010;DHT22;1008;47.404;8.502;2023-01-28T04:52:00;1.20;99.90
2010;DHT22;1008;47.404;8.502;2023-01-28T04:54:28;1.10;99.90
2010;DHT22;1008;47.404;8.502;2023-01-28T04:56:55;1.10;99.90
2010;DHT22;1008;47.404;8.502;2023-01-28T04:59:22;1.20;99.90
2010;DHT22;1008;47.404;8.502;2023-01-28T05:01:49;1.20;99.90
2010;DHT22;1008;47.404;8.502;2023-01-28T05:04:16;1.10;99.90
2010;DHT22;1008;47.404;8.502;2023-01-28T05:06:42;1.10;99.90
2010;DHT22;1008;47.404;8.502;2023-01-28T05:09:09;1.10;99.90
2010;DHT22;1008;47.404;8.502;2023-01-28T05:11:37;1.10;99.90
2010;DHT22;1008;47.404;8.502;2023-01-28T05:14:04;1.20;99.90
2010;DHT22;1008;47.404;8.502;2023-01-28T05:16:31;1.20;99.90
2010;DHT22;1008;47.404;8.502;2023-01-28T05:18:59;1.20;99.90
2010;DHT22;1008;47.404;8.502;2023-01-28T05:21:26;1.20;99.90
2010;DHT22;1008;47.404;8.502;2023-01-28T05:23:53;1.20;99.90
2010;DHT22;1008;47.404;8.502;2023-01-28T05:26:19;1.20;99.90
2010;DHT22;1008;47.404;8.502;2023-01-28T05:28:47;1.20;99.90
2010;DHT22;1008;47.404;8.502;2023-01-28T05:31:15;1.10;99.90
2010;DHT22;1008;47.404;8.502;2023-01-28T05:33:42;1.10;99.90
2010;DHT22;1008;47.404;8.502;2023-01-28T05:36:09;1.10;99.90
2010;DHT22;1008;47.404;8.502;2023-01-28T05:38:36;1.10;99.90
2010;DHT22;1008;47.404;8.502;2023-01-28T05:41:03;1.10;99.90
2010;DHT22;1008;47.404;8.502;2023-01-28T05:43:29;1.20;99.90
2010;DHT22;1008;47.404;8.502;2023-01-28T05:45:57;1.30;99.90
2010;DHT22;1008;47.404;8.502;2023-01-28T05:48:24;1.20;99.90
2010;DHT22;1008;47.404;8.502;2023-01-28T05:50:51;1.20;99.90
2010;DHT22;1008;47.404;8.502;2023-01-28T05:53:17;1.20;99.90
2010;DHT22;1008;47.404;8.502;2023-01-28T05:55:47;1.20;99.90
2010;DHT22;1008;47.404;8.502;2023-01-28T05:58:13;1.20;99.90
2010;DHT22;1008;47.404;8.502;2023-01-28T06:00:40;1.20;99.90
2010;DHT22;1008;47.404;8.502;2023-01-28T06:03:08;1.30;99.90
2010;DHT22;1008;47.404;8.502;2023-01-28T06:05:35;1.20;99.90
2010;DHT22;1008;47.404;8.502;2023-01-28T06:08:02;1.20;99.90
2010;DHT22;1008;47.404;8.502;2023-01-28T06:10:29;1.20;99.90
2010;DHT22;1008;47.404;8.502;2023-01-28T06:12:56;1.20;99.90
2010;DHT22;1008;47.404;8.502;2023-01-28T06:15:23;1.20;99.90
2010;DHT22;1008;47.404;8.502;2023-01-28T06:17:50;1.20;99.90
2010;DHT22;1008;47.404;8.502;2023-01-28T06:20:18;1.20;99.90
2010;DHT22;1008;47.404;8.502;2023-01-28T06:22:45;1.20;99.90
2010;DHT22;1008;47.404;8.502;2023-01-28T06:25:12;1.30;99.90
2010;DHT22;1008;47.404;8.502;2023-01-28T06:27:39;1.00;99.90
2010;DHT22;1008;47.404;8.502;2023-01-28T06:30:07;1.10;99.90
2010;DHT22;1008;47.404;8.502;2023-01-28T06:32:34;1.30;99.90
2010;DHT22;1008;47.404;8.502;2023-01-28T06:35:01;1.20;99.90
2010;DHT22;1008;47.404;8.502;2023-01-28T06:37:29;1.30;99.90
2010;DHT22;1008;47.404;8.502;2023-01-28T06:39:55;1.20;99.90
2010;DHT22;1008;47.404;8.502;2023-01-28T06:42:22;1.30;99.90
2010;DHT22;1008;47.404;8.502;2023-01-28T06:44:49;1.30;99.90
2010;DHT22;1008;47.404;8.502;2023-01-28T06:47:16;1.20;99.90
2010;DHT22;1008;47.404;8.502;2023-01-28T06:49:42;1.30;99.90
2010;DHT22;1008;47.404;8.502;2023-01-28T06:52:09;1.30;99.90
2010;DHT22;1008;47.404;8.502;2023-01-28T06:54:37;1.30;99.90
2010;DHT22;1008;47.404;8.502;2023-01-28T06:57:04;1.20;99.90
2010;DHT22;1008;47.404;8.502;2023-01-28T06:59:31;1.30;99.90
2010;DHT22;1008;47.404;8.502;2023-01-28T07:01:57;1.30;99.90
2010;DHT22;1008;47.404;8.502;2023-01-28T07:04:24;1.40;99.90
2010;DHT22;1008;47.404;8.502;2023-01-28T07:06:51;1.30;99.90
2010;DHT22;1008;47.404;8.502;2023-01-28T07:09:18;1.30;99.90
2010;DHT22;1008;47.404;8.502;2023-01-28T07:11:46;1.30;99.90
2010;DHT22;1008;47.404;8.502;2023-01-28T07:14:12;1.40;99.90
2010;DHT22;1008;47.404;8.502;2023-01-28T07:16:39;1.40;99.90
2010;DHT22;1008;47.404;8.502;2023-01-28T07:19:06;1.40;99.90
2010;DHT22;1008;47.404;8.502;2023-01-28T07:21:33;1.40;99.90
2010;DHT22;1008;47.404;8.502;2023-01-28T07:23:59;1.50;99.90
2010;DHT22;1008;47.404;8.502;2023-01-28T07:26:26;1.40;99.90
2010;DHT22;1008;47.404;8.502;2023-01-28T07:28:54;1.50;99.90
2010;DHT22;1008;47.404;8.502;2023-01-28T07:31:21;1.50;99.90
2010;DHT22;1008;47.404;8.502;2023-01-28T07:33:48;1.50;99.90
2010;DHT22;1008;47.404;8.502;2023-01-28T07:36:14;1.40;99.90
2010;DHT22;1008;47.404;8.502;2023-01-28T07:38:41;1.40;99.90
2010;DHT22;1008;47.404;8.502;2023-01-28T07:41:08;1.40;99.90
2010;DHT22;1008;47.404;8.502;2023-01-28T07:43:35;1.40;99.90
2010;DHT22;1008;47.404;8.502;2023-01-28T07:46:03;1.30;99.90
2010;DHT22;1008;47.404;8.502;2023-01-28T07:48:30;1.40;99.90
2010;DHT22;1008;47.404;8.502;2023-01-28T07:50:58;1.30;99.90
2010;DHT22;1008;47.404;8.502;2023-01-28T07:53:26;1.30;99.90
2010;DHT22;1008;47.404;8.502;2023-01-28T07:55:57;1.30;99.90
2010;DHT22;1008;47.404;8.502;2023-01-28T07:58:24;1.30;99.90
2010;DHT22;1008;47.404;8.502;2023-01-28T08:00:55;1.30;99.90
2010;DHT22;1008;47.404;8.502;2023-01-28T08:03:24;1.30;99.90
2010;DHT22;1008;47.404;8.502;2023-01-28T08:05:52;1.20;99.90
2010;DHT22;1008;47.404;8.502;2023-01-28T08:08:19;1.30;99.90
2010;DHT22;1008;47.404;8.502;2023-01-28T08:10:46;1.40;99.90
2010;DHT22;1008;47.404;8.502;2023-01-28T08:13:14;1.30;99.90
2010;DHT22;1008;47.404;8.502;2023-01-28T08:15:41;1.30;99.90
2010;DHT22;1008;47.404;8.502;2023-01-28T08:18:10;1.60;99.90
2010;DHT22;1008;47.404;8.502;2023-01-28T08:20:39;1.60;99.90
2010;DHT22;1008;47.404;8.502;2023-01-28T08:23:06;1.50;99.90
2010;DHT22;1008;47.404;8.502;2023-01-28T08:25:34;1.50;99.90
2010;DHT22;1008;47.404;8.502;2023-01-28T08:28:01;1.50;99.90
2010;DHT22;1008;47.404;8.502;2023-01-28T08:30:28;1.40;99.90
2010;DHT22;1008;47.404;8.502;2023-01-28T08:32:55;1.40;99.90
2010;DHT22;1008;47.404;8.502;2023-01-28T08:35:22;1.40;99.90
2010;DHT22;1008;47.404;8.502;2023-01-28T08:37:51;1.50;99.90
2010;DHT22;1008;47.404;8.502;2023-01-28T08:40:18;1.60;99.90
2010;DHT22;1008;47.404;8.502;2023-01-28T08:42:48;1.50;99.90
2010;DHT22;1008;47.404;8.502;2023-01-28T08:45:17;1.50;99.90
2010;DHT22;1008;47.404;8.502;2023-01-28T08:47:47;1.70;99.90
2010;DHT22;1008;47.404;8.502;2023-01-28T08:50:15;1.40;99.90
2010;DHT22;1008;47.404;8.502;2023-01-28T08:52:42;1.60;99.90
2010;DHT22;1008;47.404;8.502;2023-01-28T08:55:10;1.60;99.90
2010;DHT22;1008;47.404;8.502;2023-01-28T08:57:37;1.70;99.90
2010;DHT22;1008;47.404;8.502;2023-01-28T09:00:05;1.50;99.90
2010;DHT22;1008;47.404;8.502;2023-01-28T09:02:32;1.60;99.90
2010;DHT22;1008;47.404;8.502;2023-01-28T09:04:59;1.60;99.90
2010;DHT22;1008;47.404;8.502;2023-01-28T09:07:26;1.70;99.90
2010;DHT22;1008;47.404;8.502;2023-01-28T09:09:52;1.60;99.90
2010;DHT22;1008;47.404;8.502;2023-01-28T09:12:20;1.60;99.90
2010;DHT22;1008;47.404;8.502;2023-01-28T09:14:47;1.60;99.90
2010;DHT22;1008;47.404;8.502;2023-01-28T09:17:14;1.60;99.90
2010;DHT22;1008;47.404;8.502;2023-01-28T09:19:41;1.60;99.90
2010;DHT22;1008;47.404;8.502;2023-01-28T09:22:07;1.70;99.90
2010;DHT22;1008;47.404;8.502;2023-01-28T09:24:34;1.70;99.90
2010;DHT22;1008;47.404;8.502;2023-01-28T09:27:01;1.60;99.90
2010;DHT22;1008;47.404;8.502;2023-01-28T09:29:29;1.70;99.90
2010;DHT22;1008;47.404;8.502;2023-01-28T09:31:55;1.80;99.90
2010;DHT22;1008;47.404;8.502;2023-01-28T09:34:22;1.70;99.90
2010;DHT22;1008;47.404;8.502;2023-01-28T09:36:49;1.90;99.90
2010;DHT22;1008;47.404;8.502;2023-01-28T09:39:16;2.00;99.90
2010;DHT22;1008;47.404;8.502;2023-01-28T09:41:52;2.00;99.90
2010;DHT22;1008;47.404;8.502;2023-01-28T09:44:36;2.00;99.90
2010;DHT22;1008;47.404;8.502;2023-01-28T09:47:14;1.90;99.90
2010;DHT22;1008;47.404;8.502;2023-01-28T09:49:44;2.10;99.90
2010;DHT22;1008;47.404;8.502;2023-01-28T09:52:14;2.10;99.90
2010;DHT22;1008;47.404;8.502;2023-01-28T09:54:45;2.20;99.90
2010;DHT22;1008;47.404;8.502;2023-01-28T09:57:18;2.00;99.90
2010;DHT22;1008;47.404;8.502;2023-01-28T09:59:47;2.00;99.90
2010;DHT22;1008;47.404;8.502;2023-01-28T10:02:36;2.00;99.90
2010;DHT22;1008;47.404;8.502;2023-01-28T10:05:13;2.00;99.90
2010;DHT22;1008;47.404;8.502;2023-01-28T10:07:47;1.80;99.90
2010;DHT22;1008;47.404;8.502;2023-01-28T10:10:21;1.90;99.90
2010;DHT22;1008;47.404;8.502;2023-01-28T10:13:06;2.00;99.90
2010;DHT22;1008;47.404;8.502;2023-01-28T10:15:50;1.80;99.90
2010;DHT22;1008;47.404;8.502;2023-01-28T10:18:28;1.80;99.90
2010;DHT22;1008;47.404;8.502;2023-01-28T10:21:01;1.80;99.90
2010;DHT22;1008;47.404;8.502;2023-01-28T10:23:38;2.00;99.90
2010;DHT22;1008;47.404;8.502;2023-01-28T10:26:17;2.00;99.90
2010;DHT22;1008;47.404;8.502;2023-01-28T10:28:48;2.00;99.90
2010;DHT22;1008;47.404;8.502;2023-01-28T10:31:19;1.90;99.90
2010;DHT22;1008;47.404;8.502;2023-01-28T10:33:47;1.90;99.90
2010;DHT22;1008;47.404;8.502;2023-01-28T10:36:14;1.90;99.90
2010;DHT22;1008;47.404;8.502;2023-01-28T10:38:42;1.90;99.90
2010;DHT22;1008;47.404;8.502;2023-01-28T10:41:10;2.10;99.90
2010;DHT22;1008;47.404;8.502;2023-01-28T10:43:40;2.10;99.90
2010;DHT22;1008;47.404;8.502;2023-01-28T10:46:10;2.20;99.90
2010;DHT22;1008;47.404;8.502;2023-01-28T10:48:43;2.20;99.90
2010;DHT22;1008;47.404;8.502;2023-01-28T10:51:11;2.40;99.90
2010;DHT22;1008;47.404;8.502;2023-01-28T10:53:41;2.50;99.90
2010;DHT22;1008;47.404;8.502;2023-01-28T10:56:12;2.50;99.90
2010;DHT22;1008;47.404;8.502;2023-01-28T10:58:49;2.60;99.90
2010;DHT22;1008;47.404;8.502;2023-01-28T11:01:19;2.60;99.90
2010;DHT22;1008;47.404;8.502;2023-01-28T11:03:55;2.50;99.90
2010;DHT22;1008;47.404;8.502;2023-01-28T11:06:25;2.40;99.90
2010;DHT22;1008;47.404;8.502;2023-01-28T11:08:52;2.30;99.90
2010;DHT22;1008;47.404;8.502;2023-01-28T11:11:23;2.30;99.90
2010;DHT22;1008;47.404;8.502;2023-01-28T11:13:51;2.20;99.90
2010;DHT22;1008;47.404;8.502;2023-01-28T11:16:19;2.30;99.90
2010;DHT22;1008;47.404;8.502;2023-01-28T11:18:50;2.30;99.90
2010;DHT22;1008;47.404;8.502;2023-01-28T11:21:20;2.40;99.90
2010;DHT22;1008;47.404;8.502;2023-01-28T11:23:50;2.40;99.90
2010;DHT22;1008;47.404;8.502;2023-01-28T11:26:20;2.40;99.90
2010;DHT22;1008;47.404;8.502;2023-01-28T11:28:48;2.40;99.90
2010;DHT22;1008;47.404;8.502;2023-01-28T11:31:17;2.50;99.90
2010;DHT22;1008;47.404;8.502;2023-01-28T11:33:48;2.60;99.90
2010;DHT22;1008;47.404;8.502;2023-01-28T11:36:18;2.30;99.90
2010;DHT22;1008;47.404;8.502;2023-01-28T11:38:51;2.40;99.90
2010;DHT22;1008;47.404;8.502;2023-01-28T11:41:24;2.50;99.90
2010;DHT22;1008;47.404;8.502;2023-01-28T11:43:52;2.40;99.90
2010;DHT22;1008;47.404;8.502;2023-01-28T11:46:37;2.40;99.90
2010;DHT22;1008;47.404;8.502;2023-01-28T11:49:11;2.40;99.90
2010;DHT22;1008;47.404;8.502;2023-01-28T11:51:45;2.40;99.90
2010;DHT22;1008;47.404;8.502;2023-01-28T11:54:24;2.50;99.90
2010;DHT22;1008;47.404;8.502;2023-01-28T11:57:15;2.40;99.90
2010;DHT22;1008;47.404;8.502;2023-01-28T12:00:02;2.50;99.90
2010;DHT22;1008;47.404;8.502;2023-01-28T12:02:50;2.30;99.90
2010;DHT22;1008;47.404;8.502;2023-01-28T12:05:41;2.30;99.90
2010;DHT22;1008;47.404;8.502;2023-01-28T12:08:19;2.40;99.90
2010;DHT22;1008;47.404;8.502;2023-01-28T12:10:53;2.40;99.90
2010;DHT22;1008;47.404;8.502;2023-01-28T12:13:32;2.50;99.90
2010;DHT22;1008;47.404;8.502;2023-01-28T12:16:19;2.50;99.90
2010;DHT22;1008;47.404;8.502;2023-01-28T12:19:08;2.60;99.90
2010;DHT22;1008;47.404;8.502;2023-01-28T12:21:50;2.60;99.90
2010;DHT22;1008;47.404;8.502;2023-01-28T12:24:37;2.70;99.90
2010;DHT22;1008;47.404;8.502;2023-01-28T12:27:13;2.60;99.90
2010;DHT22;1008;47.404;8.502;2023-01-28T12:29:51;2.60;99.90
2010;DHT22;1008;47.404;8.502;2023-01-28T12:32:30;2.40;99.90
2010;DHT22;1008;47.404;8.502;2023-01-28T12:35:23;2.50;99.90
2010;DHT22;1008;47.404;8.502;2023-01-28T12:38:05;2.50;99.90
2010;DHT22;1008;47.404;8.502;2023-01-28T12:40:46;2.50;99.90
2010;DHT22;1008;47.404;8.502;2023-01-28T12:43:19;2.40;99.90
2010;DHT22;1008;47.404;8.502;2023-01-28T12:45:50;2.60;99.90
2010;DHT22;1008;47.404;8.502;2023-01-28T12:48:23;2.70;99.90
2010;DHT22;1008;47.404;8.502;2023-01-28T12:50:56;2.70;99.90
2010;DHT22;1008;47.404;8.502;2023-01-28T12:53:27;2.70;99.90
2010;DHT22;1008;47.404;8.502;2023-01-28T12:56:03;2.70;99.90
2010;DHT22;1008;47.404;8.502;2023-01-28T12:58:38;2.50;99.90
2010;DHT22;1008;47.404;8.502;2023-01-28T13:01:09;2.60;99.90
2010;DHT22;1008;47.404;8.502;2023-01-28T13:03:39;2.80;99.90
2010;DHT22;1008;47.404;8.502;2023-01-28T13:06:12;2.70;99.90
2010;DHT22;1008;47.404;8.502;2023-01-28T13:08:40;3.00;99.90
2010;DHT22;1008;47.404;8.502;2023-01-28T13:11:13;3.00;99.90
2010;DHT22;1008;47.404;8.502;2023-01-28T13:13:41;3.10;99.90
2010;DHT22;1008;47.404;8.502;2023-01-28T13:16:11;3.20;99.90
2010;DHT22;1008;47.404;8.502;2023-01-28T13:18:45;3.10;99.90
2010;DHT22;1008;47.404;8.502;2023-01-28T13:21:16;3.10;99.90
2010;DHT22;1008;47.404;8.502;2023-01-28T13:23:44;2.80;99.90
2010;DHT22;1008;47.404;8.502;2023-01-28T13:26:29;2.90;99.90
2010;DHT22;1008;47.404;8.502;2023-01-28T13:29:14;2.90;99.90
2010;DHT22;1008;47.404;8.502;2023-01-28T13:31:44;2.80;99.90
2010;DHT22;1008;47.404;8.502;2023-01-28T13:34:26;2.80;99.90
2010;DHT22;1008;47.404;8.502;2023-01-28T13:36:55;2.90;99.90
2010;DHT22;1008;47.404;8.502;2023-01-28T13:39:23;2.80;99.90
2010;DHT22;1008;47.404;8.502;2023-01-28T13:41:53;2.80;99.90
2010;DHT22;1008;47.404;8.502;2023-01-28T13:44:28;2.80;99.90
2010;DHT22;1008;47.404;8.502;2023-01-28T13:46:57;2.60;99.90
2010;DHT22;1008;47.404;8.502;2023-01-28T13:49:28;2.60;99.90
2010;DHT22;1008;47.404;8.502;2023-01-28T13:52:03;2.70;99.90
2010;DHT22;1008;47.404;8.502;2023-01-28T13:54:34;2.70;99.90
2010;DHT22;1008;47.404;8.502;2023-01-28T13:57:29;2.80;99.90
2010;DHT22;1008;47.404;8.502;2023-01-28T14:00:07;2.70;99.90
2010;DHT22;1008;47.404;8.502;2023-01-28T14:05:50;2.70;99.90
2010;DHT22;1008;47.404;8.502;2023-01-28T14:08:42;2.60;99.90
2010;DHT22;1008;47.404;8.502;2023-01-28T14:11:31;2.70;99.90
2010;DHT22;1008;47.404;8.502;2023-01-28T14:14:37;2.50;99.90
2010;DHT22;1008;47.404;8.502;2023-01-28T14:17:16;2.70;99.90
2010;DHT22;1008;47.404;8.502;2023-01-28T14:19:46;2.70;99.90
2010;DHT22;1008;47.404;8.502;2023-01-28T14:22:17;2.80;99.90
2010;DHT22;1008;47.404;8.502;2023-01-28T14:24:44;2.70;99.90
2010;DHT22;1008;47.404;8.502;2023-01-28T14:27:15;2.60;99.90
2010;DHT22;1008;47.404;8.502;2023-01-28T14:29:50;2.70;99.90
2010;DHT22;1008;47.404;8.502;2023-01-28T14:32:25;2.50;99.90
2010;DHT22;1008;47.404;8.502;2023-01-28T14:34:53;2.50;99.90
2010;DHT22;1008;47.404;8.502;2023-01-28T14:37:24;2.70;99.90
2010;DHT22;1008;47.404;8.502;2023-01-28T14:39:57;2.60;99.90
2010;DHT22;1008;47.404;8.502;2023-01-28T14:42:26;2.60;99.90
2010;DHT22;1008;47.404;8.502;2023-01-28T14:45:08;2.20;99.90
2010;DHT22;1008;47.404;8.502;2023-01-28T14:51:00;2.60;99.90
2010;DHT22;1008;47.404;8.502;2023-01-28T14:53:55;2.50;99.90
2010;DHT22;1008;47.404;8.502;2023-01-28T14:56:33;2.60;99.90
2010;DHT22;1008;47.404;8.502;2023-01-28T14:59:06;2.50;99.90
2010;DHT22;1008;47.404;8.502;2023-01-28T15:01:43;2.70;99.90
2010;DHT22;1008;47.404;8.502;2023-01-28T15:04:22;2.60;99.90
2010;DHT22;1008;47.404;8.502;2023-01-28T15:06:49;2.60;99.90
2010;DHT22;1008;47.404;8.502;2023-01-28T15:09:15;2.30;99.90
2010;DHT22;1008;47.404;8.502;2023-01-28T15:11:45;2.40;99.90
2010;DHT22;1008;47.404;8.502;2023-01-28T15:14:18;2.40;99.90
2010;DHT22;1008;47.404;8.502;2023-01-28T15:16:48;2.40;99.90
2010;DHT22;1008;47.404;8.502;2023-01-28T15:19:15;2.40;99.90
2010;DHT22;1008;47.404;8.502;2023-01-28T15:21:43;2.40;99.90
2010;DHT22;1008;47.404;8.502;2023-01-28T15:24:13;2.30;99.90
2010;DHT22;1008;47.404;8.502;2023-01-28T15:26:45;2.50;99.90
2010;DHT22;1008;47.404;8.502;2023-01-28T15:29:23;2.40;99.90
2010;DHT22;1008;47.404;8.502;2023-01-28T15:31:51;2.40;99.90
2010;DHT22;1008;47.404;8.502;2023-01-28T15:34:19;2.50;99.90
2010;DHT22;1008;47.404;8.502;2023-01-28T15:36:46;2.50;99.90
2010;DHT22;1008;47.404;8.502;2023-01-28T15:39:15;2.50;99.90
2010;DHT22;1008;47.404;8.502;2023-01-28T15:41:45;2.40;99.90
2010;DHT22;1008;47.404;8.502;2023-01-28T15:44:17;2.40;99.90
2010;DHT22;1008;47.404;8.502;2023-01-28T15:46:45;2.40;99.90
2010;DHT22;1008;47.404;8.502;2023-01-28T15:49:15;2.40;99.90
2010;DHT22;1008;47.404;8.502;2023-01-28T15:51:48;2.40;99.90
2010;DHT22;1008;47.404;8.502;2023-01-28T15:54:16;2.40;99.90
2010;DHT22;1008;47.404;8.502;2023-01-28T15:56:43;2.50;99.90
2010;DHT22;1008;47.404;8.502;2023-01-28T15:59:18;2.30;99.90
2010;DHT22;1008;47.404;8.502;2023-01-28T16:01:47;2.30;99.90
2010;DHT22;1008;47.404;8.502;2023-01-28T16:04:24;2.20;99.90
2010;DHT22;1008;47.404;8.502;2023-01-28T16:06:51;2.20;99.90
2010;DHT22;1008;47.404;8.502;2023-01-28T16:09:22;2.30;99.90
2010;DHT22;1008;47.404;8.502;2023-01-28T16:11:51;2.40;99.90
2010;DHT22;1008;47.404;8.502;2023-01-28T16:14:22;2.20;99.90
2010;DHT22;1008;47.404;8.502;2023-01-28T16:16:49;2.20;99.90
2010;DHT22;1008;47.404;8.502;2023-01-28T16:19:29;2.30;99.90
2010;DHT22;1008;47.404;8.502;2023-01-28T16:21:57;2.30;99.90
2010;DHT22;1008;47.404;8.502;2023-01-28T16:24:25;2.40;99.90
2010;DHT22;1008;47.404;8.502;2023-01-28T16:26:56;2.60;99.90
2010;DHT22;1008;47.404;8.502;2023-01-28T16:29:25;2.40;99.90
2010;DHT22;1008;47.404;8.502;2023-01-28T16:31:52;2.20;99.90
2010;DHT22;1008;47.404;8.502;2023-01-28T16:34:19;2.20;99.90
2010;DHT22;1008;47.404;8.502;2023-01-28T16:36:47;2.30;99.90
2010;DHT22;1008;47.404;8.502;2023-01-28T16:39:14;2.30;99.90
2010;DHT22;1008;47.404;8.502;2023-01-28T16:41:42;2.30;99.90
2010;DHT22;1008;47.404;8.502;2023-01-28T16:44:12;2.40;99.90
2010;DHT22;1008;47.404;8.502;2023-01-28T16:46:39;2.40;99.90
2010;DHT22;1008;47.404;8.502;2023-01-28T16:49:07;2.30;99.90
2010;DHT22;1008;47.404;8.502;2023-01-28T16:51:34;2.30;99.90